createdAt,value
2019-03-19T00:00:16.931Z,5.10
2019-03-19T00:02:45.553Z,5.00
2019-03-19T00:05:12.488Z,4.90
2019-03-19T00:07:38.823Z,4.90
2019-03-19T00:10:08.036Z,4.80
2019-03-19T00:12:34.336Z,4.70
2019-03-19T00:15:00.713Z,4.70
2019-03-19T00:17:27.052Z,4.60
2019-03-19T00:19:53.750Z,4.60
2019-03-19T00:22:20.115Z,4.50
2019-03-19T00:24:46.487Z,4.50
2019-03-19T00:27:12.844Z,4.40
2019-03-19T00:29:39.183Z,4.40
2019-03-19T00:32:05.520Z,4.30
2019-03-19T00:34:31.844Z,4.20
2019-03-19T00:36:58.592Z,4.30
2019-03-19T00:39:24.916Z,4.20
2019-03-19T00:41:51.282Z,4.20
2019-03-19T00:44:18.090Z,4.20
2019-03-19T00:46:44.833Z,4.10
2019-03-19T00:49:11.460Z,4.10
2019-03-19T00:51:38.266Z,4.00
2019-03-19T00:54:04.577Z,4.00
2019-03-19T00:56:31.025Z,4.00
2019-03-19T00:58:57.392Z,4.00
2019-03-19T01:01:24.072Z,4.00
2019-03-19T01:03:50.425Z,3.90
2019-03-19T01:06:17.095Z,4.00
2019-03-19T01:08:44.173Z,3.90
2019-03-19T01:11:11.475Z,3.90
2019-03-19T01:13:38.218Z,3.90
2019-03-19T01:16:04.624Z,3.90
2019-03-19T01:18:31.030Z,3.80
2019-03-19T01:20:57.366Z,3.80
2019-03-19T01:23:23.720Z,3.80
2019-03-19T01:25:55.732Z,3.80
2019-03-19T01:28:18.839Z,3.80
2019-03-19T01:30:45.310Z,3.80
2019-03-19T01:33:11.648Z,3.80
2019-03-19T01:35:38.435Z,3.80
2019-03-19T01:38:04.764Z,3.80
2019-03-19T01:40:31.425Z,3.80
2019-03-19T01:42:57.775Z,3.70
2019-03-19T01:45:24.122Z,3.70
2019-03-19T01:47:50.889Z,3.80
2019-03-19T01:50:17.218Z,3.70
2019-03-19T01:52:43.631Z,3.70
2019-03-19T01:55:14.198Z,3.70
2019-03-19T01:57:40.766Z,3.70
2019-03-19T02:00:17.267Z,3.70
2019-03-19T02:02:43.616Z,3.70
2019-03-19T02:05:10.385Z,3.80
2019-03-19T02:07:36.686Z,3.80
2019-03-19T02:10:09.797Z,3.80
2019-03-19T02:12:36.135Z,3.80
2019-03-19T02:15:05.967Z,3.90
2019-03-19T02:17:32.659Z,3.90
2019-03-19T02:19:59.065Z,4.00
2019-03-19T02:22:25.786Z,4.00
2019-03-19T02:24:52.479Z,4.00
2019-03-19T02:27:19.106Z,4.10
2019-03-19T02:29:45.427Z,4.20
2019-03-19T02:32:11.796Z,4.20
2019-03-19T02:34:38.127Z,4.30
2019-03-19T02:37:04.570Z,4.30
2019-03-19T02:39:30.864Z,4.40
2019-03-19T02:41:57.220Z,4.30
2019-03-19T02:44:23.543Z,4.30
2019-03-19T02:46:50.286Z,4.20
2019-03-19T02:49:16.647Z,4.20
2019-03-19T02:51:42.998Z,4.20
2019-03-19T02:54:09.570Z,4.10
2019-03-19T02:56:35.972Z,4.00
2019-03-19T02:59:02.654Z,4.00
2019-03-19T03:01:29.326Z,4.00
2019-03-19T03:03:55.713Z,4.00
2019-03-19T03:06:22.047Z,3.90
2019-03-19T03:08:48.424Z,4.00
2019-03-19T03:11:14.760Z,3.90
2019-03-19T03:13:41.107Z,3.90
2019-03-19T03:16:07.438Z,3.90
2019-03-19T03:18:34.123Z,3.80
2019-03-19T03:21:00.533Z,3.80
2019-03-19T03:23:27.173Z,3.80
2019-03-19T03:25:53.541Z,3.80
2019-03-19T03:28:19.894Z,3.80
2019-03-19T03:30:46.265Z,3.80
2019-03-19T03:33:12.601Z,3.90
2019-03-19T03:35:40.887Z,3.80
2019-03-19T03:38:07.539Z,3.70
2019-03-19T03:40:34.308Z,3.90
2019-03-19T03:43:00.659Z,3.90
2019-03-19T03:45:27.234Z,4.00
2019-03-19T03:47:53.649Z,4.00
2019-03-19T03:50:20.060Z,3.90
2019-03-19T03:52:46.409Z,3.90
2019-03-19T03:55:19.272Z,4.00
2019-03-19T03:57:45.851Z,4.20
2019-03-19T04:00:18.094Z,4.20
2019-03-19T04:02:44.884Z,4.20
2019-03-19T04:05:11.972Z,4.20
2019-03-19T04:07:38.364Z,4.20
2019-03-19T04:10:10.788Z,4.20
2019-03-19T04:12:37.120Z,4.10
2019-03-19T04:15:07.591Z,4.10
2019-03-19T04:17:33.951Z,4.10
2019-03-19T04:20:00.509Z,4.00
2019-03-19T04:22:27.305Z,4.00
2019-03-19T04:24:53.745Z,4.00
2019-03-19T04:27:20.177Z,3.90
2019-03-19T04:29:46.795Z,3.90
2019-03-19T04:32:13.522Z,3.90
2019-03-19T04:34:39.955Z,3.90
2019-03-19T04:37:06.418Z,3.90
2019-03-19T04:39:32.737Z,3.90
2019-03-19T04:41:59.073Z,3.80
2019-03-19T04:44:25.434Z,3.70
2019-03-19T04:46:51.877Z,3.70
2019-03-19T04:49:18.230Z,3.60
2019-03-19T04:51:44.571Z,3.60
2019-03-19T04:54:11.250Z,3.50
2019-03-19T04:56:37.597Z,3.40
2019-03-19T04:59:03.941Z,3.40
2019-03-19T05:01:30.301Z,3.30
2019-03-19T05:03:56.647Z,3.30
2019-03-19T05:06:23.300Z,3.20
2019-03-19T05:08:50.420Z,3.20
2019-03-19T05:11:18.219Z,3.10
2019-03-19T05:13:44.552Z,3.00
2019-03-19T05:16:10.868Z,3.00
2019-03-19T05:18:37.488Z,3.00
2019-03-19T05:21:04.837Z,3.00
2019-03-19T05:23:31.529Z,3.00
2019-03-19T05:25:58.283Z,3.00
2019-03-19T05:28:25.358Z,3.00
2019-03-19T05:30:51.714Z,3.00
2019-03-19T05:33:19.606Z,3.00
2019-03-19T05:35:50.842Z,3.10
2019-03-19T05:38:17.923Z,3.10
2019-03-19T05:40:44.542Z,3.10
2019-03-19T05:43:10.981Z,3.10
2019-03-19T05:45:37.333Z,3.20
2019-03-19T05:48:03.748Z,3.10
2019-03-19T05:50:30.101Z,3.10
2019-03-19T05:52:56.476Z,3.10
2019-03-19T05:55:23.136Z,3.20
2019-03-19T05:57:50.607Z,3.10
2019-03-19T06:00:28.743Z,3.10
2019-03-19T06:02:55.469Z,3.10
2019-03-19T06:05:22.082Z,3.10
2019-03-19T06:07:49.415Z,3.30
2019-03-19T06:10:15.760Z,3.30
2019-03-19T06:12:42.128Z,3.50
2019-03-19T06:15:14.170Z,3.50
2019-03-19T06:17:40.491Z,3.70
2019-03-19T06:20:18.927Z,3.70
2019-03-19T06:22:45.260Z,3.80
2019-03-19T06:25:12.449Z,3.80
2019-03-19T06:27:38.769Z,3.90
2019-03-19T06:30:15.217Z,4.00
2019-03-19T06:32:41.867Z,4.00
2019-03-19T06:35:10.753Z,4.00
2019-03-19T06:37:37.193Z,4.20
2019-03-19T06:40:13.265Z,4.40
2019-03-19T06:42:39.966Z,4.40
2019-03-19T06:45:10.323Z,4.30
2019-03-19T06:47:36.668Z,4.40
2019-03-19T06:50:10.526Z,4.40
2019-03-19T06:52:36.841Z,4.40
2019-03-19T06:55:07.755Z,4.30
2019-03-19T06:57:39.211Z,4.50
2019-03-19T07:00:13.885Z,4.40
2019-03-19T07:02:40.336Z,4.50
2019-03-19T07:05:08.313Z,4.60
2019-03-19T07:07:34.623Z,4.70
2019-03-19T07:10:01.028Z,4.60
2019-03-19T07:12:27.697Z,4.70
2019-03-19T07:14:54.010Z,4.60
2019-03-19T07:17:20.489Z,4.70
2019-03-19T07:19:46.907Z,5.00
2019-03-19T07:22:13.732Z,5.00
2019-03-19T07:24:40.048Z,5.10
2019-03-19T07:27:06.411Z,5.40
2019-03-19T07:29:33.019Z,5.40
2019-03-19T07:31:59.359Z,5.50
2019-03-19T07:34:25.687Z,5.20
2019-03-19T07:36:52.034Z,5.20
2019-03-19T07:39:18.663Z,5.40
2019-03-19T07:41:45.509Z,5.50
2019-03-19T07:44:12.149Z,5.50
2019-03-19T07:46:38.511Z,5.90
2019-03-19T07:49:04.823Z,5.80
2019-03-19T07:51:31.231Z,5.90
2019-03-19T07:53:57.561Z,6.20
2019-03-19T07:56:23.895Z,6.20
2019-03-19T07:58:50.272Z,6.20
2019-03-19T08:01:16.589Z,6.20
2019-03-19T08:03:42.956Z,5.90
2019-03-19T08:06:09.670Z,6.10
2019-03-19T08:08:36.989Z,6.40
2019-03-19T08:11:06.920Z,6.40
2019-03-19T08:13:33.443Z,6.50
2019-03-19T08:16:00.312Z,6.20
2019-03-19T08:18:27.018Z,6.10
2019-03-19T08:20:54.919Z,6.20
2019-03-19T08:23:22.486Z,6.30
2019-03-19T08:25:49.478Z,6.00
2019-03-19T08:28:16.132Z,6.20
2019-03-19T08:30:42.900Z,6.30
2019-03-19T08:33:09.240Z,5.80
2019-03-19T08:35:38.517Z,5.50
2019-03-19T08:38:06.167Z,5.10
2019-03-19T08:40:32.809Z,4.50
2019-03-19T08:42:59.213Z,4.40
2019-03-19T08:45:27.544Z,4.40
2019-03-19T08:47:54.405Z,4.60
2019-03-19T08:50:22.961Z,4.80
2019-03-19T08:52:49.586Z,5.00
2019-03-19T08:55:15.940Z,5.40
2019-03-19T08:57:42.857Z,5.70
2019-03-19T09:00:24.307Z,5.60
2019-03-19T09:02:52.559Z,5.90
2019-03-19T09:05:19.177Z,6.30
2019-03-19T09:07:45.523Z,6.30
2019-03-19T09:10:16.927Z,6.60
2019-03-19T09:12:43.516Z,6.70
2019-03-19T09:15:27.845Z,7.00
2019-03-19T09:17:54.592Z,7.10
2019-03-19T09:20:21.132Z,7.10
2019-03-19T09:22:47.461Z,7.00
2019-03-19T09:25:15.905Z,7.10
2019-03-19T09:27:42.397Z,7.70
2019-03-19T09:30:23.996Z,7.80
2019-03-19T09:32:50.437Z,8.10
2019-03-19T09:35:17.018Z,8.50
2019-03-19T09:37:46.312Z,8.90
2019-03-19T09:40:17.187Z,8.90
2019-03-19T09:42:43.483Z,8.90
2019-03-19T09:45:11.971Z,8.10
2019-03-19T09:47:38.614Z,7.30
2019-03-19T09:50:15.495Z,7.10
2019-03-19T09:52:42.844Z,7.00
2019-03-19T09:55:11.057Z,7.10
2019-03-19T09:57:39.768Z,7.40
2019-03-19T10:00:16.859Z,7.50
2019-03-19T10:02:43.527Z,7.60
2019-03-19T10:05:10.413Z,7.80
2019-03-19T10:07:41.479Z,7.80
2019-03-19T10:10:15.435Z,8.00
2019-03-19T10:12:44.921Z,7.80
2019-03-19T10:15:12.204Z,8.20
2019-03-19T10:17:38.487Z,8.30
2019-03-19T10:20:23.780Z,8.50
2019-03-19T10:22:54.002Z,9.10
2019-03-19T10:25:20.548Z,9.60
2019-03-19T10:27:47.174Z,9.40
2019-03-19T10:30:21.189Z,9.10
2019-03-19T10:32:47.947Z,8.70
2019-03-19T10:35:15.107Z,8.00
2019-03-19T10:37:42.313Z,7.40
2019-03-19T10:40:17.700Z,7.40
2019-03-19T10:42:46.369Z,7.70
2019-03-19T10:45:25.994Z,7.80
2019-03-19T10:47:52.595Z,7.70
2019-03-19T10:50:23.709Z,7.90
2019-03-19T10:52:50.942Z,8.00
2019-03-19T10:55:17.598Z,7.90
2019-03-19T10:57:44.532Z,8.20
2019-03-19T11:00:24.379Z,8.40
2019-03-19T11:02:50.821Z,8.60
2019-03-19T11:05:18.541Z,9.00
2019-03-19T11:07:45.287Z,8.90
2019-03-19T11:10:16.118Z,9.10
2019-03-19T11:12:42.651Z,8.90
2019-03-19T11:15:23.811Z,8.90
2019-03-19T11:17:50.245Z,8.90
2019-03-19T11:20:18.732Z,8.60
2019-03-19T11:22:45.689Z,8.70
2019-03-19T11:25:16.741Z,8.90
2019-03-19T11:27:43.463Z,9.40
2019-03-19T11:30:17.298Z,9.70
2019-03-19T11:32:46.304Z,9.80
2019-03-19T11:35:13.246Z,10.00
2019-03-19T11:37:41.051Z,10.40
2019-03-19T11:40:15.555Z,10.60
2019-03-19T11:42:42.265Z,11.30
2019-03-19T11:45:13.623Z,11.00
2019-03-19T11:47:40.227Z,10.90
2019-03-19T11:50:28.012Z,10.20
2019-03-19T11:52:54.391Z,10.00
2019-03-19T11:55:21.304Z,10.50
2019-03-19T11:57:48.235Z,11.00
2019-03-19T12:00:28.289Z,11.30
2019-03-19T12:02:54.921Z,10.90
2019-03-19T12:05:21.334Z,11.90
2019-03-19T12:07:47.677Z,12.80
2019-03-19T12:10:14.463Z,14.80
2019-03-19T12:12:40.843Z,16.10
2019-03-19T12:15:09.101Z,15.50
2019-03-19T12:17:35.425Z,15.20
2019-03-19T12:20:05.296Z,14.70
2019-03-19T12:22:31.640Z,14.90
2019-03-19T12:25:00.378Z,15.00
2019-03-19T12:27:27.152Z,16.00
2019-03-19T12:29:53.487Z,15.50
2019-03-19T12:32:19.858Z,16.30
2019-03-19T12:34:46.232Z,17.40
2019-03-19T12:37:12.684Z,14.40
2019-03-19T12:39:39.447Z,13.60
2019-03-19T12:42:05.821Z,12.10
2019-03-19T12:44:32.121Z,11.10
2019-03-19T12:46:58.464Z,10.90
2019-03-19T12:49:25.963Z,12.20
2019-03-19T12:51:54.270Z,14.60
2019-03-19T12:54:20.888Z,15.90
2019-03-19T12:56:47.587Z,16.40
2019-03-19T12:59:20.256Z,17.40
2019-03-19T13:01:42.400Z,18.30
2019-03-19T13:04:09.070Z,17.70
2019-03-19T13:06:35.806Z,18.40
2019-03-19T13:09:05.372Z,21.60
2019-03-19T13:11:32.184Z,19.40
2019-03-19T13:13:58.612Z,18.60
2019-03-19T13:16:25.239Z,15.40
2019-03-19T13:18:51.888Z,14.10
2019-03-19T13:21:18.243Z,12.60
2019-03-19T13:23:44.850Z,12.50
2019-03-19T13:26:12.237Z,12.10
2019-03-19T13:28:38.852Z,10.80
2019-03-19T13:31:05.488Z,10.30
2019-03-19T13:33:32.117Z,10.20
2019-03-19T13:35:58.534Z,10.30
2019-03-19T13:38:25.281Z,10.10
2019-03-19T13:40:51.677Z,11.30
2019-03-19T13:43:18.105Z,10.90
2019-03-19T13:45:44.809Z,10.60
2019-03-19T13:48:11.173Z,10.60
2019-03-19T13:50:37.560Z,11.00
2019-03-19T13:53:04.206Z,10.70
2019-03-19T13:55:30.562Z,10.00
2019-03-19T13:57:57.276Z,10.00
2019-03-19T14:00:23.628Z,9.90
2019-03-19T14:02:49.992Z,9.60
2019-03-19T14:05:16.619Z,9.10
2019-03-19T14:07:42.974Z,8.80
2019-03-19T14:10:17.539Z,9.10
2019-03-19T14:12:44.391Z,9.30
2019-03-19T14:15:26.141Z,10.00
2019-03-19T14:17:52.809Z,10.30
2019-03-19T14:20:20.030Z,9.90
2019-03-19T14:22:46.441Z,9.70
2019-03-19T14:25:14.879Z,9.60
2019-03-19T14:27:42.148Z,9.10
2019-03-19T14:30:21.055Z,8.90
2019-03-19T14:32:47.702Z,8.80
2019-03-19T14:35:15.175Z,8.60
2019-03-19T14:37:42.193Z,8.40
2019-03-19T14:40:19.651Z,8.10
2019-03-19T14:42:48.120Z,8.00
2019-03-19T14:45:17.074Z,7.90
2019-03-19T14:47:45.094Z,7.80
2019-03-19T14:50:20.515Z,7.80
2019-03-19T14:52:47.321Z,8.10
2019-03-19T14:55:13.944Z,8.00
2019-03-19T14:57:40.727Z,8.10
2019-03-19T15:00:20.202Z,7.90
2019-03-19T15:02:46.920Z,7.80
2019-03-19T15:05:14.637Z,7.70
2019-03-19T15:07:44.144Z,7.90
2019-03-19T15:10:14.069Z,7.90
2019-03-19T15:12:43.428Z,7.90
2019-03-19T15:15:15.906Z,7.80
2019-03-19T15:17:49.164Z,7.70
2019-03-19T15:20:24.524Z,7.60
2019-03-19T15:22:51.056Z,7.50
2019-03-19T15:25:18.831Z,7.60
2019-03-19T15:27:45.196Z,7.70
2019-03-19T15:30:17.300Z,7.90
2019-03-19T15:32:48.051Z,8.30
2019-03-19T15:35:15.025Z,8.00
2019-03-19T15:37:41.701Z,8.20
2019-03-19T15:40:18.677Z,8.10
2019-03-19T15:42:45.442Z,8.30
2019-03-19T15:45:28.815Z,8.30
2019-03-19T15:47:55.192Z,7.90
2019-03-19T15:50:21.957Z,7.70
2019-03-19T15:52:51.215Z,7.70
2019-03-19T15:55:32.687Z,7.60
2019-03-19T15:58:02.663Z,7.60
2019-03-19T16:00:29.029Z,7.70
2019-03-19T16:02:58.637Z,7.60
2019-03-19T16:05:25.105Z,7.60
2019-03-19T16:07:52.633Z,7.60
2019-03-19T16:10:19.415Z,7.50
2019-03-19T16:12:46.263Z,7.50
2019-03-19T16:15:18.478Z,7.40
2019-03-19T16:17:45.824Z,7.40
2019-03-19T16:20:23.925Z,7.40
2019-03-19T16:22:50.455Z,7.20
2019-03-19T16:25:17.205Z,7.20
2019-03-19T16:27:43.865Z,7.20
2019-03-19T16:30:18.943Z,7.10
2019-03-19T16:32:45.546Z,7.00
2019-03-19T16:35:12.929Z,7.10
2019-03-19T16:37:39.465Z,7.20
2019-03-19T16:40:20.092Z,7.30
2019-03-19T16:42:46.675Z,7.30
2019-03-19T16:45:13.611Z,7.10
2019-03-19T16:47:40.271Z,7.10
2019-03-19T16:50:17.029Z,7.10
2019-03-19T16:52:51.498Z,7.00
2019-03-19T16:55:20.085Z,7.00
2019-03-19T16:57:46.390Z,7.10
2019-03-19T17:00:22.311Z,7.10
2019-03-19T17:02:49.334Z,7.10
2019-03-19T17:05:16.761Z,7.10
2019-03-19T17:07:43.584Z,6.90
2019-03-19T17:10:15.791Z,6.90
2019-03-19T17:12:44.763Z,7.00
2019-03-19T17:15:14.158Z,7.00
2019-03-19T17:17:42.505Z,7.00
2019-03-19T17:20:13.282Z,6.90
2019-03-19T17:22:40.338Z,6.80
2019-03-19T17:25:15.338Z,6.70
2019-03-19T17:27:41.763Z,6.70
2019-03-19T17:30:24.525Z,6.50
2019-03-19T17:32:51.002Z,6.40
2019-03-19T17:35:18.755Z,6.40
2019-03-19T17:37:46.327Z,6.40
2019-03-19T17:40:14.231Z,6.40
2019-03-19T17:42:40.976Z,6.40
2019-03-19T17:45:10.849Z,6.30
2019-03-19T17:47:37.772Z,6.40
2019-03-19T17:50:36.414Z,6.40
2019-03-19T17:53:03.056Z,6.50
2019-03-19T17:55:29.766Z,6.50
2019-03-19T17:57:56.429Z,6.50
2019-03-19T18:00:25.017Z,6.50
2019-03-19T18:02:51.647Z,6.50
2019-03-19T18:05:18.047Z,6.40
2019-03-19T18:07:44.422Z,6.40
2019-03-19T18:10:12.456Z,6.30
2019-03-19T18:12:39.321Z,6.20
2019-03-19T18:15:13.525Z,6.00
2019-03-19T18:17:39.893Z,6.00
2019-03-19T18:20:16.161Z,5.90
2019-03-19T18:22:43.012Z,5.90
2019-03-19T18:25:17.282Z,6.00
2019-03-19T18:27:43.636Z,5.90
2019-03-19T18:30:19.341Z,5.80
2019-03-19T18:32:45.727Z,5.90
2019-03-19T18:35:12.185Z,5.90
2019-03-19T18:37:38.883Z,6.00
2019-03-19T18:40:12.660Z,6.00
2019-03-19T18:42:39.005Z,6.00
2019-03-19T18:45:20.709Z,5.90
2019-03-19T18:47:47.055Z,5.90
2019-03-19T18:50:20.741Z,6.00
2019-03-19T18:52:47.488Z,6.00
2019-03-19T18:55:14.148Z,5.90
2019-03-19T18:57:41.710Z,5.90
2019-03-19T19:00:20.021Z,5.90
2019-03-19T19:02:50.357Z,5.80
2019-03-19T19:05:16.776Z,5.80
2019-03-19T19:07:43.740Z,5.70
2019-03-19T19:10:13.535Z,5.80
2019-03-19T19:12:41.508Z,5.80
2019-03-19T19:15:21.966Z,5.80
2019-03-19T19:17:48.800Z,5.70
2019-03-19T19:20:16.163Z,5.80
2019-03-19T19:22:43.111Z,5.80
2019-03-19T19:25:14.913Z,5.80
2019-03-19T19:27:41.618Z,5.90
2019-03-19T19:30:29.469Z,5.80
2019-03-19T19:33:01.672Z,5.90
2019-03-19T19:35:24.051Z,6.00
2019-03-19T19:37:50.442Z,6.00
2019-03-19T19:40:17.169Z,6.00
2019-03-19T19:42:43.887Z,6.00
2019-03-19T19:45:12.997Z,6.20
2019-03-19T19:47:39.593Z,6.10
2019-03-19T19:50:12.789Z,6.10
2019-03-19T19:52:39.300Z,6.20
2019-03-19T19:55:09.113Z,6.20
2019-03-19T19:57:36.088Z,6.10
2019-03-19T20:00:07.972Z,6.10
2019-03-19T20:02:34.322Z,6.20
2019-03-19T20:05:03.157Z,6.10
2019-03-19T20:07:31.068Z,6.10
2019-03-19T20:09:57.938Z,6.00
2019-03-19T20:12:24.258Z,6.10
2019-03-19T20:14:50.886Z,6.10
2019-03-19T20:17:17.660Z,6.00
2019-03-19T20:19:44.476Z,6.00
2019-03-19T20:22:10.917Z,6.00
2019-03-19T20:24:37.234Z,6.00
2019-03-19T20:27:03.602Z,6.00
2019-03-19T20:29:31.019Z,6.10
2019-03-19T20:31:57.779Z,6.10
2019-03-19T20:34:24.458Z,6.20
2019-03-19T20:36:51.315Z,6.10
2019-03-19T20:39:17.739Z,6.10
2019-03-19T20:41:44.712Z,6.20
2019-03-19T20:44:11.651Z,6.20
2019-03-19T20:46:38.060Z,6.20
2019-03-19T20:49:04.500Z,6.20
2019-03-19T20:51:30.965Z,6.20
2019-03-19T20:53:57.332Z,6.20
2019-03-19T20:56:23.644Z,6.30
2019-03-19T20:58:51.842Z,6.20
2019-03-19T21:01:18.509Z,6.20
2019-03-19T21:03:44.954Z,6.20
2019-03-19T21:06:11.681Z,6.30
2019-03-19T21:08:38.071Z,6.30
2019-03-19T21:11:07.826Z,6.20
2019-03-19T21:13:34.229Z,6.20
2019-03-19T21:16:00.905Z,6.20
2019-03-19T21:18:27.522Z,6.20
2019-03-19T21:20:53.929Z,6.20
2019-03-19T21:23:20.290Z,6.20
2019-03-19T21:25:46.933Z,6.20
2019-03-19T21:28:14.734Z,6.30
2019-03-19T21:30:41.640Z,6.20
2019-03-19T21:33:08.130Z,6.20
2019-03-19T21:35:34.817Z,6.20
2019-03-19T21:38:04.543Z,6.10
2019-03-19T21:40:30.881Z,6.10
2019-03-19T21:42:57.700Z,6.10
2019-03-19T21:45:24.385Z,6.10
2019-03-19T21:47:51.024Z,6.20
2019-03-19T21:50:23.616Z,6.20
2019-03-19T21:52:50.606Z,6.10
2019-03-19T21:55:17.314Z,6.10
2019-03-19T21:57:43.990Z,6.20
2019-03-19T22:00:14.144Z,6.20
2019-03-19T22:02:40.943Z,6.10
2019-03-19T22:05:07.630Z,6.00
2019-03-19T22:07:34.320Z,6.00
2019-03-19T22:10:00.668Z,6.00
2019-03-19T22:12:26.998Z,6.10
2019-03-19T22:14:54.468Z,6.00
2019-03-19T22:17:21.074Z,5.90
2019-03-19T22:19:47.714Z,5.90
2019-03-19T22:22:14.351Z,6.00
2019-03-19T22:24:41.096Z,6.00
2019-03-19T22:27:07.549Z,5.90
2019-03-19T22:29:34.168Z,5.90
2019-03-19T22:32:00.830Z,5.80
2019-03-19T22:34:27.168Z,5.80
2019-03-19T22:36:53.899Z,5.80
2019-03-19T22:39:20.530Z,5.80
2019-03-19T22:41:46.869Z,5.80
2019-03-19T22:44:13.646Z,5.70
2019-03-19T22:46:39.982Z,5.70
2019-03-19T22:49:06.320Z,5.70
2019-03-19T22:51:32.997Z,5.70
2019-03-19T22:53:59.662Z,5.70
2019-03-19T22:56:26.028Z,5.70
2019-03-19T22:58:52.344Z,5.70
2019-03-19T23:01:18.880Z,5.70
2019-03-19T23:03:45.291Z,5.70
2019-03-19T23:06:11.866Z,5.70
2019-03-19T23:08:38.639Z,5.70
2019-03-19T23:11:05.211Z,5.70
2019-03-19T23:13:31.912Z,5.70
2019-03-19T23:15:58.558Z,5.70
2019-03-19T23:18:24.894Z,5.60
2019-03-19T23:20:51.648Z,5.60
2019-03-19T23:23:18.268Z,5.70
2019-03-19T23:25:44.591Z,5.80
2019-03-19T23:28:11.339Z,5.70
2019-03-19T23:30:37.960Z,5.70
2019-03-19T23:33:04.617Z,5.80
2019-03-19T23:35:30.968Z,5.80
2019-03-19T23:37:57.300Z,5.80
2019-03-19T23:40:23.913Z,5.80
2019-03-19T23:42:50.282Z,5.80
2019-03-19T23:45:17.093Z,5.80
2019-03-19T23:47:43.522Z,5.80
2019-03-19T23:50:15.966Z,5.90
2019-03-19T23:52:42.499Z,5.90
2019-03-19T23:55:09.593Z,5.80
2019-03-19T23:57:36.225Z,5.90
